Time;durP1;ratioP1;P1;durP2;ratioP2;P2;SDS_P1;SDS_P2;PMS_P1;PMS_P2;Temp;Humidity;BMP_temperature;BMP_pressure;BME280_temperature;BME280_humidity;BME280_pressure;Samples;Min_cycle;Max_cycle;Signal;HPM_P1;HPM_P2
2021/05/31 00:01:12;;;;;;;0.90;0.60;;;14.20;97.40;;;;;;5155885;27;20848;-72
2021/05/31 00:03:39;;;;;;;1.40;0.60;;;14.10;98.40;;;;;;5153847;27;20553;-73
2021/05/31 00:06:05;;;;;;;1.90;0.70;;;14.00;97.10;;;;;;5154208;27;20766;-73
2021/05/31 00:08:32;;;;;;;1.60;0.50;;;14.00;98.10;;;;;;5154448;27;20751;-72
2021/05/31 00:11:00;;;;;;;1.00;0.50;;;13.90;98.30;;;;;;5154574;27;20528;-74
2021/05/31 00:13:27;;;;;;;1.30;0.50;;;13.80;98.50;;;;;;5155143;27;20812;-72
2021/05/31 00:15:55;;;;;;;0.70;0.50;;;13.80;98.50;;;;;;5154579;27;20455;-72
2021/05/31 00:18:22;;;;;;;0.98;0.60;;;13.80;98.80;;;;;;5156433;27;20417;-73
2021/05/31 00:20:50;;;;;;;0.80;0.52;;;13.80;98.40;;;;;;5156458;27;20431;-73
2021/05/31 00:23:16;;;;;;;0.90;0.50;;;13.80;99.10;;;;;;5156789;27;20788;-74
2021/05/31 00:25:43;;;;;;;0.90;0.60;;;13.80;98.60;;;;;;5155516;27;20486;-72
2021/05/31 00:28:10;;;;;;;0.70;0.50;;;13.60;98.90;;;;;;5155644;27;20507;-73
2021/05/31 00:30:39;;;;;;;0.80;0.50;;;13.50;99.20;;;;;;5157409;27;20853;-73
2021/05/31 00:33:05;;;;;;;1.00;0.60;;;13.50;99.60;;;;;;5156170;27;20428;-73
2021/05/31 00:35:32;;;;;;;1.02;0.50;;;13.50;99.50;;;;;;5155642;27;20558;-73
2021/05/31 00:38:00;;;;;;;1.00;0.60;;;13.40;99.60;;;;;;5154195;27;20641;-74
2021/05/31 00:40:27;;;;;;;0.80;0.50;;;13.40;99.90;;;;;;5153342;27;20626;-73
2021/05/31 00:42:54;;;;;;;1.08;0.57;;;13.40;99.90;;;;;;5152920;27;20496;-73
2021/05/31 00:45:20;;;;;;;1.10;0.60;;;13.40;99.90;;;;;;5152473;27;20859;-73
2021/05/31 00:47:48;;;;;;;0.90;0.60;;;13.40;99.90;;;;;;5151905;27;20462;-73
2021/05/31 00:50:18;;;;;;;0.90;0.50;;;13.50;99.90;;;;;;5154211;27;20752;-72
2021/05/31 00:52:45;;;;;;;0.70;0.50;;;13.40;99.90;;;;;;5155370;27;20884;-72
2021/05/31 00:55:13;;;;;;;0.90;0.50;;;13.30;99.90;;;;;;5154830;27;20727;-73
2021/05/31 00:57:40;;;;;;;0.70;0.50;;;13.20;99.90;;;;;;5155823;27;20411;-74
2021/05/31 01:00:09;;;;;;;0.80;0.50;;;13.20;99.90;;;;;;5156681;27;20818;-74
2021/05/31 01:02:35;;;;;;;0.90;0.50;;;13.30;99.90;;;;;;5156422;27;20476;-74
2021/05/31 01:05:02;;;;;;;1.08;0.50;;;13.30;99.90;;;;;;5157196;27;20678;-73
2021/05/31 01:07:36;;;;;;;1.00;0.60;;;13.30;99.90;;;;;;5156609;27;20444;-72
2021/05/31 01:10:12;;;;;;;0.90;0.50;;;13.30;99.90;;;;;;5155840;27;20509;-73
2021/05/31 01:12:45;;;;;;;0.80;0.50;;;13.30;99.90;;;;;;5156104;27;20878;-73
2021/05/31 01:15:15;;;;;;;0.90;0.52;;;13.30;99.90;;;;;;5156633;27;20473;-72
2021/05/31 01:17:56;;;;;;;0.80;0.50;;;13.20;99.90;;;;;;5156010;27;20420;-73
2021/05/31 01:20:32;;;;;;;0.90;0.50;;;13.20;99.90;;;;;;5155747;27;20515;-73
2021/05/31 01:23:00;;;;;;;1.10;0.50;;;13.30;99.90;;;;;;5156157;27;20420;-72
2021/05/31 01:25:33;;;;;;;1.10;0.57;;;13.30;99.90;;;;;;5156668;27;20433;-72
2021/05/31 01:28:26;;;;;;;1.00;0.60;;;13.30;99.90;;;;;;5156554;27;20816;-73
2021/05/31 01:30:57;;;;;;;0.68;0.50;;;13.30;99.90;;;;;;5155865;27;20448;-73
2021/05/31 01:33:30;;;;;;;0.80;0.50;;;13.30;99.90;;;;;;5156157;27;20504;-72
2021/05/31 01:35:58;;;;;;;0.70;0.50;;;13.30;99.90;;;;;;5156261;27;20417;-72
2021/05/31 01:38:26;;;;;;;1.00;0.50;;;13.40;99.90;;;;;;5155935;27;20508;-72
2021/05/31 01:40:54;;;;;;;1.30;0.50;;;13.30;99.90;;;;;;5156934;27;20536;-72
2021/05/31 01:43:22;;;;;;;1.10;0.50;;;13.30;99.90;;;;;;5156304;27;20420;-73
2021/05/31 01:45:49;;;;;;;0.90;0.60;;;13.20;99.90;;;;;;5155436;27;20530;-73
2021/05/31 01:48:17;;;;;;;1.60;0.60;;;13.20;99.90;;;;;;5156418;27;20496;-73
2021/05/31 01:50:45;;;;;;;0.80;0.60;;;13.10;99.90;;;;;;5156137;27;20467;-73
2021/05/31 01:53:13;;;;;;;1.33;0.50;;;13.10;99.90;;;;;;5154461;27;20412;-72
2021/05/31 01:55:40;;;;;;;0.80;0.50;;;13.00;99.90;;;;;;5155451;27;20469;-72
2021/05/31 01:58:08;;;;;;;1.00;0.50;;;13.00;99.90;;;;;;5155265;27;20958;-73
2021/05/31 02:00:36;;;;;;;0.70;0.50;;;13.00;99.90;;;;;;5155585;27;20472;-73
2021/05/31 02:03:03;;;;;;;0.77;0.50;;;13.10;99.90;;;;;;5155480;27;20417;-71
2021/05/31 02:05:31;;;;;;;1.10;0.50;;;13.00;99.90;;;;;;5155126;27;20932;-72
2021/05/31 02:07:57;;;;;;;0.80;0.50;;;13.00;99.90;;;;;;5155505;27;20495;-71
2021/05/31 02:10:24;;;;;;;0.80;0.50;;;13.00;99.90;;;;;;5156526;27;20519;-72
2021/05/31 02:12:53;;;;;;;0.80;0.50;;;12.90;99.90;;;;;;5157017;27;20516;-72
2021/05/31 02:15:24;;;;;;;1.20;0.50;;;12.90;99.90;;;;;;5156873;27;20570;-73
2021/05/31 02:18:00;;;;;;;1.08;0.50;;;12.90;99.90;;;;;;5157381;27;20438;-72
2021/05/31 02:20:29;;;;;;;0.80;0.50;;;12.80;99.90;;;;;;5157262;27;20427;-74
2021/05/31 02:22:59;;;;;;;1.38;0.50;;;12.70;99.90;;;;;;5158089;27;20473;-72
2021/05/31 02:25:27;;;;;;;1.10;0.50;;;12.60;99.90;;;;;;5156850;27;20870;-72
2021/05/31 02:27:55;;;;;;;1.00;0.50;;;12.60;99.90;;;;;;5156771;27;20583;-73
2021/05/31 02:30:22;;;;;;;0.80;0.57;;;12.50;99.90;;;;;;5156231;27;20521;-73
2021/05/31 02:32:53;;;;;;;0.98;0.60;;;12.40;99.90;;;;;;5156241;27;20503;-72
2021/05/31 02:35:22;;;;;;;1.00;0.50;;;12.40;99.90;;;;;;5156294;27;20511;-73
2021/05/31 02:37:48;;;;;;;0.80;0.50;;;12.40;99.90;;;;;;5156538;27;20413;-75
2021/05/31 02:40:18;;;;;;;0.77;0.50;;;12.40;99.90;;;;;;5156634;27;20427;-73
2021/05/31 02:42:47;;;;;;;0.80;0.50;;;12.30;99.90;;;;;;5156744;27;20416;-73
2021/05/31 02:45:16;;;;;;;1.17;0.57;;;12.20;99.90;;;;;;5156769;27;20724;-73
2021/05/31 02:47:43;;;;;;;0.80;0.50;;;12.20;99.90;;;;;;5156465;27;20704;-73
2021/05/31 02:50:11;;;;;;;0.80;0.50;;;12.20;99.90;;;;;;5156286;27;20424;-74
2021/05/31 02:52:41;;;;;;;1.17;0.60;;;12.20;99.90;;;;;;5155338;27;20463;-73
2021/05/31 02:55:08;;;;;;;0.70;0.50;;;12.20;99.90;;;;;;5155382;27;20424;-73
2021/05/31 02:57:36;;;;;;;0.80;0.50;;;12.10;99.90;;;;;;5155494;27;20663;-73
2021/05/31 03:00:05;;;;;;;0.70;0.50;;;12.10;99.90;;;;;;5155497;27;20930;-73
2021/05/31 03:02:31;;;;;;;0.80;0.50;;;12.10;99.90;;;;;;5155533;27;20470;-73
2021/05/31 03:04:58;;;;;;;0.90;0.60;;;12.10;99.90;;;;;;5157710;27;20420;-72
2021/05/31 03:07:24;;;;;;;1.50;0.60;;;12.10;99.90;;;;;;5158307;27;20416;-73
2021/05/31 03:09:51;;;;;;;0.80;0.50;;;12.10;99.90;;;;;;5158442;27;20503;-73
2021/05/31 03:12:18;;;;;;;0.90;0.60;;;12.10;99.90;;;;;;5159685;27;20421;-73
2021/05/31 03:14:45;;;;;;;2.90;0.60;;;12.00;99.90;;;;;;5160040;27;20421;-73
2021/05/31 03:17:12;;;;;;;1.45;0.70;;;12.00;99.90;;;;;;5158793;27;20495;-74
2021/05/31 03:19:38;;;;;;;0.80;0.60;;;12.00;99.90;;;;;;5158546;27;20500;-71
2021/05/31 03:22:05;;;;;;;1.10;0.60;;;11.90;99.90;;;;;;5156491;27;20517;-72
2021/05/31 03:24:31;;;;;;;0.90;0.60;;;11.80;99.90;;;;;;5156875;27;20415;-72
2021/05/31 03:26:57;;;;;;;0.70;0.50;;;11.80;99.90;;;;;;5156968;27;20608;-74
2021/05/31 03:29:24;;;;;;;1.25;0.50;;;11.70;99.90;;;;;;5157039;27;20411;-73
2021/05/31 03:31:51;;;;;;;0.80;0.50;;;11.70;99.90;;;;;;5156056;27;20516;-73
2021/05/31 03:34:18;;;;;;;0.90;0.60;;;11.70;99.90;;;;;;5156789;27;20496;-73
2021/05/31 03:36:44;;;;;;;0.98;0.50;;;11.70;99.90;;;;;;5159742;27;20417;-72
2021/05/31 03:39:11;;;;;;;0.90;0.60;;;11.60;99.90;;;;;;5159304;27;20413;-73
2021/05/31 03:41:37;;;;;;;1.03;0.60;;;11.60;99.90;;;;;;5159269;27;20523;-73
2021/05/31 03:44:03;;;;;;;1.00;0.60;;;11.60;99.90;;;;;;5159220;27;20413;-73
2021/05/31 03:46:30;;;;;;;2.30;0.60;;;11.50;99.90;;;;;;5158895;27;20539;-73
2021/05/31 03:48:58;;;;;;;0.90;0.50;;;11.60;99.90;;;;;;5158111;27;20452;-73
2021/05/31 03:51:24;;;;;;;0.90;0.60;;;11.60;99.90;;;;;;5158099;27;20460;-73
2021/05/31 03:53:51;;;;;;;0.90;0.60;;;11.50;99.90;;;;;;5158126;27;20769;-74
2021/05/31 03:56:17;;;;;;;1.70;0.60;;;11.50;99.90;;;;;;5158015;27;20428;-73
2021/05/31 03:58:45;;;;;;;0.82;0.50;;;11.50;99.90;;;;;;5158025;27;20472;-74
2021/05/31 04:01:12;;;;;;;0.75;0.60;;;11.50;99.90;;;;;;5157276;27;20425;-77
2021/05/31 04:03:39;;;;;;;3.30;0.60;;;11.50;99.90;;;;;;5158794;27;20423;-74
2021/05/31 04:06:17;;;;;;;5.05;0.70;;;11.40;99.90;;;;;;5158457;27;20441;-72
2021/05/31 04:11:34;;;;;;;2.10;0.60;;;11.70;99.90;;;;;;5158672;27;20408;-71
2021/05/31 04:14:11;;;;;;;1.00;0.60;;;11.80;99.90;;;;;;5157489;27;20473;-72
2021/05/31 04:16:39;;;;;;;1.00;0.60;;;11.70;99.90;;;;;;5156020;27;20505;-71
2021/05/31 04:19:07;;;;;;;0.90;0.60;;;11.60;99.90;;;;;;5156869;27;20424;-71
2021/05/31 04:21:35;;;;;;;1.00;0.63;;;11.60;99.90;;;;;;5157914;27;20879;-72
2021/05/31 04:24:02;;;;;;;1.00;0.70;;;11.60;99.90;;;;;;5156894;27;20465;-73
2021/05/31 04:26:30;;;;;;;0.90;0.60;;;11.50;99.90;;;;;;5141835;27;20511;-72
2021/05/31 04:28:56;;;;;;;1.00;0.60;;;11.60;99.90;;;;;;5159271;27;20835;-71
2021/05/31 04:31:24;;;;;;;1.30;0.70;;;11.70;99.90;;;;;;5140929;27;20457;-73
2021/05/31 04:33:50;;;;;;;1.00;0.60;;;11.80;99.90;;;;;;5137972;27;20733;-72
2021/05/31 04:36:17;;;;;;;1.40;0.60;;;11.90;99.90;;;;;;5138308;27;20752;-72
2021/05/31 04:38:45;;;;;;;0.95;0.60;;;12.00;99.90;;;;;;5137382;27;20505;-71
2021/05/31 04:41:12;;;;;;;1.73;0.60;;;12.20;99.90;;;;;;5138102;27;20935;-74
2021/05/31 04:43:38;;;;;;;1.60;0.60;;;12.20;99.90;;;;;;5137039;27;20423;-72
2021/05/31 04:46:05;;;;;;;1.60;0.60;;;12.20;99.90;;;;;;5135970;27;20780;-72
2021/05/31 04:48:31;;;;;;;2.50;0.50;;;12.20;99.90;;;;;;5136146;27;20776;-73
2021/05/31 04:50:59;;;;;;;1.40;0.60;;;12.20;99.90;;;;;;5135288;27;20483;-72
2021/05/31 04:53:26;;;;;;;1.00;0.50;;;12.20;99.90;;;;;;5136421;27;20432;-73
2021/05/31 04:55:55;;;;;;;1.50;0.60;;;12.30;99.90;;;;;;5136679;27;20517;-73
2021/05/31 04:58:22;;;;;;;1.70;0.60;;;12.40;99.90;;;;;;5136259;27;20471;-74
2021/05/31 05:00:49;;;;;;;0.90;0.60;;;12.40;99.90;;;;;;5137409;27;20444;-72
2021/05/31 05:03:17;;;;;;;1.30;0.70;;;12.50;99.90;;;;;;5136689;27;20419;-72
2021/05/31 05:05:43;;;;;;;1.00;0.60;;;12.50;99.90;;;;;;5136362;27;20461;-72
2021/05/31 05:08:10;;;;;;;2.22;0.60;;;12.50;99.90;;;;;;5136521;27;20522;-72
2021/05/31 05:10:37;;;;;;;1.10;0.50;;;12.60;99.90;;;;;;5137245;27;20502;-73
2021/05/31 05:13:06;;;;;;;2.80;0.60;;;12.60;99.90;;;;;;5136429;27;20410;-73
2021/05/31 05:15:32;;;;;;;0.90;0.60;;;12.60;99.90;;;;;;5136597;27;20877;-72
2021/05/31 05:17:59;;;;;;;1.20;0.70;;;12.60;99.90;;;;;;5137202;27;20419;-71
2021/05/31 05:20:28;;;;;;;0.90;0.60;;;12.70;99.90;;;;;;5135794;27;20427;-71
2021/05/31 05:22:55;;;;;;;1.60;0.60;;;12.70;99.90;;;;;;5135251;27;20664;-71
2021/05/31 05:25:22;;;;;;;1.17;0.70;;;12.70;99.90;;;;;;5134903;27;20461;-70
2021/05/31 05:27:49;;;;;;;1.00;0.60;;;12.70;99.90;;;;;;5135636;27;20463;-71
2021/05/31 05:30:20;;;;;;;0.95;0.60;;;12.70;99.90;;;;;;5134882;27;20478;-71
2021/05/31 05:32:48;;;;;;;1.20;0.60;;;12.70;99.90;;;;;;5145061;27;20428;-71
2021/05/31 05:35:21;;;;;;;0.88;0.50;;;12.70;99.90;;;;;;5142352;27;20791;-71
2021/05/31 05:40:55;;;;;;;1.00;0.70;;;12.90;99.90;;;;;;5111771;27;20968;-71
2021/05/31 05:46:23;;;;;;;1.17;0.70;;;13.00;99.90;;;;;;5121024;27;20429;-73
2021/05/31 05:48:51;;;;;;;1.10;0.70;;;13.00;99.90;;;;;;5136364;27;20445;-72
2021/05/31 05:51:18;;;;;;;1.40;0.70;;;13.00;99.90;;;;;;5135684;27;20818;-71
2021/05/31 05:53:47;;;;;;;0.90;0.60;;;13.00;99.90;;;;;;5135305;27;20632;-72
2021/05/31 05:56:15;;;;;;;1.10;0.70;;;13.10;99.90;;;;;;5151663;27;20452;-71
2021/05/31 05:58:42;;;;;;;1.33;0.60;;;13.20;99.90;;;;;;5157415;27;20417;-71
2021/05/31 06:01:11;;;;;;;2.10;0.60;;;13.30;99.90;;;;;;5156824;27;20476;-71
2021/05/31 06:03:39;;;;;;;0.80;0.60;;;13.50;99.90;;;;;;5156749;27;20461;-71
2021/05/31 06:06:06;;;;;;;1.10;0.70;;;13.60;99.90;;;;;;5144765;27;20434;-71
2021/05/31 06:08:36;;;;;;;1.30;0.60;;;13.70;99.90;;;;;;5143796;27;20485;-70
2021/05/31 06:11:28;;;;;;;0.90;0.60;;;13.80;99.90;;;;;;5143014;28;20434;-72
2021/05/31 06:13:58;;;;;;;3.23;0.80;;;13.90;99.90;;;;;;5139786;27;20520;-71
2021/05/31 06:16:26;;;;;;;1.88;0.70;;;14.00;99.90;;;;;;5144450;27;20779;-70
2021/05/31 06:19:05;;;;;;;1.30;0.70;;;14.00;99.90;;;;;;5154793;27;20507;-71
2021/05/31 06:21:31;;;;;;;1.58;0.80;;;14.20;99.90;;;;;;5156872;27;20463;-71
2021/05/31 06:23:59;;;;;;;1.10;0.77;;;14.20;99.90;;;;;;5151666;27;20450;-71
2021/05/31 06:26:25;;;;;;;1.00;0.80;;;14.20;99.90;;;;;;5142472;27;20477;-70
2021/05/31 06:28:52;;;;;;;0.90;0.70;;;14.30;99.90;;;;;;5155370;27;20550;-71
2021/05/31 06:31:19;;;;;;;1.75;0.82;;;14.50;99.90;;;;;;5154583;27;20420;-71
2021/05/31 06:33:47;;;;;;;1.55;0.70;;;14.50;99.90;;;;;;5152893;27;20422;-70
2021/05/31 06:36:13;;;;;;;1.30;0.70;;;14.50;99.90;;;;;;5139622;27;20429;-71
2021/05/31 06:38:40;;;;;;;0.90;0.70;;;14.60;99.90;;;;;;5140830;27;20857;-71
2021/05/31 06:41:07;;;;;;;2.35;0.80;;;14.60;99.90;;;;;;5139822;27;20455;-72
2021/05/31 06:43:34;;;;;;;1.80;0.77;;;14.70;99.90;;;;;;5148781;27;20862;-71
2021/05/31 06:46:01;;;;;;;1.40;0.80;;;14.70;99.90;;;;;;5144904;27;20453;-71
2021/05/31 06:48:28;;;;;;;2.33;0.70;;;14.70;99.90;;;;;;5149556;27;20426;-72
2021/05/31 06:50:56;;;;;;;1.20;0.70;;;14.90;99.90;;;;;;5142346;27;20863;-71
2021/05/31 06:53:22;;;;;;;1.30;0.70;;;14.90;99.90;;;;;;5140575;27;20865;-71
2021/05/31 06:55:49;;;;;;;1.30;0.80;;;15.00;99.90;;;;;;5155536;27;20408;-71
2021/05/31 06:58:15;;;;;;;1.90;0.70;;;15.00;99.90;;;;;;5149010;27;20996;-71
2021/05/31 07:00:43;;;;;;;1.20;0.70;;;15.10;99.90;;;;;;5137906;27;20509;-70
2021/05/31 07:03:10;;;;;;;1.10;0.70;;;15.30;99.90;;;;;;5137392;27;20419;-71
2021/05/31 07:05:37;;;;;;;1.10;0.75;;;15.50;99.90;;;;;;5143987;27;20458;-71
2021/05/31 07:08:06;;;;;;;3.10;2.40;;;15.60;99.90;;;;;;5153334;27;20420;-71
2021/05/31 07:10:33;;;;;;;1.00;0.60;;;15.60;99.90;;;;;;5160552;27;20413;-72
2021/05/31 07:13:01;;;;;;;0.90;0.60;;;15.60;99.90;;;;;;5159176;27;20507;-72
2021/05/31 07:15:29;;;;;;;0.80;0.50;;;15.70;99.90;;;;;;5158809;27;20740;-72
2021/05/31 07:17:55;;;;;;;0.70;0.50;;;15.80;99.90;;;;;;5159468;27;20450;-72
2021/05/31 07:20:22;;;;;;;0.90;0.60;;;15.90;99.90;;;;;;5147899;27;20513;-72
2021/05/31 07:22:49;;;;;;;1.30;0.70;;;16.00;99.90;;;;;;5157033;27;20704;-72
2021/05/31 07:25:18;;;;;;;1.67;0.60;;;16.10;99.90;;;;;;5158129;27;20463;-72
2021/05/31 07:27:45;;;;;;;0.80;0.50;;;16.20;99.90;;;;;;5158005;27;20852;-71
2021/05/31 07:30:13;;;;;;;0.70;0.50;;;16.30;99.90;;;;;;5154135;27;20808;-71
2021/05/31 07:32:39;;;;;;;0.70;0.50;;;16.40;99.90;;;;;;5150652;27;20517;-71
2021/05/31 07:35:07;;;;;;;0.70;0.45;;;16.50;99.90;;;;;;5149825;27;20428;-71
2021/05/31 07:37:34;;;;;;;0.70;0.50;;;16.60;99.90;;;;;;5154178;27;20457;-71
2021/05/31 07:40:01;;;;;;;1.35;0.50;;;16.70;99.90;;;;;;5155642;27;20423;-71
2021/05/31 07:42:28;;;;;;;0.90;0.50;;;16.70;99.90;;;;;;5158350;27;20503;-74
2021/05/31 07:44:55;;;;;;;1.50;0.60;;;16.80;99.90;;;;;;5156210;27;20521;-74
2021/05/31 07:47:21;;;;;;;0.90;0.50;;;17.00;99.90;;;;;;5155697;27;20464;-75
2021/05/31 07:49:48;;;;;;;0.90;0.50;;;17.00;99.90;;;;;;5154129;27;20432;-74
2021/05/31 07:52:20;;;;;;;3.20;0.50;;;17.10;99.90;;;;;;5149827;27;20692;-74
2021/05/31 07:54:47;;;;;;;1.40;0.60;;;17.20;99.90;;;;;;5134927;27;20514;-71
2021/05/31 07:57:13;;;;;;;3.20;2.20;;;17.20;99.90;;;;;;5144198;27;20950;-72
2021/05/31 07:59:42;;;;;;;1.95;0.70;;;17.20;99.90;;;;;;5156433;27;20495;-73
2021/05/31 08:02:08;;;;;;;0.90;0.60;;;17.30;99.90;;;;;;5156544;27;20512;-73
2021/05/31 08:04:35;;;;;;;1.20;0.60;;;17.30;99.90;;;;;;5148890;27;20474;-73
2021/05/31 08:07:01;;;;;;;0.90;0.55;;;17.40;99.10;;;;;;5156854;27;20511;-73
2021/05/31 08:09:28;;;;;;;0.90;0.50;;;17.50;99.00;;;;;;5158431;27;20731;-74
2021/05/31 08:11:57;;;;;;;1.50;0.70;;;17.60;98.60;;;;;;5155540;27;20877;-73
2021/05/31 08:14:24;;;;;;;1.25;0.60;;;17.70;98.20;;;;;;5155773;27;20509;-74
2021/05/31 08:16:57;;;;;;;1.10;0.80;;;17.80;98.70;;;;;;5156645;27;20520;-75
2021/05/31 08:19:26;;;;;;;1.00;0.60;;;17.90;99.30;;;;;;5151136;27;20424;-74
2021/05/31 08:21:53;;;;;;;2.10;0.53;;;18.00;97.80;;;;;;5158220;27;20888;-74
2021/05/31 08:24:19;;;;;;;1.10;0.50;;;17.90;98.00;;;;;;5156351;27;20425;-75
2021/05/31 08:26:47;;;;;;;2.10;0.50;;;18.00;95.70;;;;;;5157085;27;20428;-73
2021/05/31 08:29:13;;;;;;;0.60;0.50;;;18.00;95.00;;;;;;5149046;27;20589;-74
2021/05/31 08:31:40;;;;;;;1.00;0.50;;;18.00;93.70;;;;;;5155966;27;20461;-74
2021/05/31 08:34:08;;;;;;;1.70;0.50;;;18.00;92.70;;;;;;5155701;27;20485;-74
2021/05/31 08:36:34;;;;;;;1.25;0.50;;;18.30;92.10;;;;;;5157028;27;20512;-72
2021/05/31 08:39:03;;;;;;;0.70;0.50;;;18.40;90.90;;;;;;5151295;27;20503;-72
2021/05/31 08:41:29;;;;;;;0.90;0.50;;;18.40;91.50;;;;;;5148683;27;20441;-73
2021/05/31 08:43:57;;;;;;;0.70;0.40;;;18.40;91.00;;;;;;5156756;27;20502;-73
2021/05/31 08:46:24;;;;;;;1.10;0.70;;;18.50;90.70;;;;;;5138288;27;20441;-73
2021/05/31 08:48:50;;;;;;;2.47;1.50;;;18.40;92.00;;;;;;5134250;27;20541;-73
2021/05/31 08:51:21;;;;;;;1.50;0.60;;;18.40;91.70;;;;;;5135130;27;20479;-72
2021/05/31 08:53:47;;;;;;;0.65;0.50;;;18.60;91.20;;;;;;5134005;27;20457;-73
2021/05/31 08:56:17;;;;;;;0.90;0.50;;;18.70;88.20;;;;;;5136045;27;20827;-73
2021/05/31 08:58:44;;;;;;;1.20;0.47;;;18.60;89.40;;;;;;5135458;27;20817;-74
2021/05/31 09:01:10;;;;;;;0.60;0.40;;;18.80;87.80;;;;;;5135214;27;20592;-73
2021/05/31 09:03:38;;;;;;;0.70;0.40;;;18.90;85.00;;;;;;5136919;27;20526;-73
2021/05/31 09:06:09;;;;;;;0.70;0.50;;;18.80;83.50;;;;;;5134825;27;20422;-73
2021/05/31 09:08:39;;;;;;;0.70;0.40;;;18.90;83.70;;;;;;5139928;27;20515;-74
2021/05/31 09:11:07;;;;;;;0.75;0.50;;;18.90;84.60;;;;;;5152740;27;20447;-73
2021/05/31 09:13:36;;;;;;;0.90;0.50;;;18.90;84.10;;;;;;5136583;27;20426;-74
2021/05/31 09:16:05;;;;;;;2.60;0.60;;;18.90;84.60;;;;;;5145738;27;20432;-74
2021/05/31 09:18:31;;;;;;;0.70;0.50;;;18.90;83.60;;;;;;5156159;27;20511;-75
2021/05/31 09:20:58;;;;;;;1.50;0.60;;;19.10;85.60;;;;;;5145246;27;20434;-74
2021/05/31 09:23:44;;;;;;;0.85;0.50;;;19.40;84.40;;;;;;5143941;27;20903;-75
2021/05/31 09:26:11;;;;;;;1.20;0.50;;;19.30;81.60;;;;;;5156213;27;20744;-69
2021/05/31 09:29:03;;;;;;;1.30;0.50;;;19.40;82.20;;;;;;5148870;27;20515;-69
2021/05/31 09:31:31;;;;;;;0.70;0.50;;;19.40;81.20;;;;;;5135144;27;20573;-69
2021/05/31 09:34:00;;;;;;;1.10;0.50;;;19.50;82.10;;;;;;5133711;27;20525;-71
2021/05/31 09:36:27;;;;;;;1.70;1.10;;;19.60;81.90;;;;;;5134312;27;20411;-69
2021/05/31 09:38:56;;;;;;;0.70;0.50;;;19.80;78.80;;;;;;5134034;27;20517;-69
2021/05/31 09:41:35;;;;;;;1.30;0.50;;;19.90;77.30;;;;;;5137126;27;20929;-70
2021/05/31 09:44:37;;;;;;;0.70;0.50;;;19.80;75.20;;;;;;5135729;27;20430;-70
2021/05/31 09:47:04;;;;;;;1.00;0.50;;;19.90;76.40;;;;;;5026628;27;20891;-68
2021/05/31 09:49:30;;;;;;;0.70;0.50;;;20.10;77.00;;;;;;5153209;27;20540;-68
2021/05/31 09:52:00;;;;;;;0.77;0.50;;;20.30;73.80;;;;;;5153628;27;21013;-69
2021/05/31 09:54:29;;;;;;;0.80;0.60;;;20.20;75.70;;;;;;5152925;27;20416;-69
2021/05/31 09:56:56;;;;;;;0.65;0.50;;;20.10;76.50;;;;;;5152720;27;20871;-71
2021/05/31 09:59:26;;;;;;;0.98;0.50;;;19.90;76.80;;;;;;5154027;27;20790;-69
2021/05/31 10:01:56;;;;;;;1.30;0.50;;;20.10;75.70;;;;;;5153287;27;20791;-69
2021/05/31 10:04:29;;;;;;;0.60;0.50;;;19.90;75.20;;;;;;5147582;27;20489;-72
2021/05/31 10:07:00;;;;;;;0.90;0.60;;;19.90;74.80;;;;;;5141005;27;20438;-71
2021/05/31 10:09:28;;;;;;;0.80;0.50;;;20.30;73.90;;;;;;5148791;27;20852;-69
2021/05/31 10:11:57;;;;;;;0.70;0.50;;;20.60;74.10;;;;;;5148077;27;20517;-70
2021/05/31 10:14:24;;;;;;;1.30;0.50;;;20.60;72.60;;;;;;5130611;27;20910;-70
2021/05/31 10:16:52;;;;;;;0.60;0.50;;;20.60;71.00;;;;;;5139784;27;20413;-70
2021/05/31 10:19:18;;;;;;;0.80;0.50;;;20.80;69.60;;;;;;5152083;27;20439;-71
2021/05/31 10:21:46;;;;;;;0.80;0.52;;;20.60;71.30;;;;;;5149594;27;20446;-72
2021/05/31 10:24:13;;;;;;;1.80;0.50;;;20.70;69.90;;;;;;5139678;27;20555;-72
2021/05/31 10:26:45;;;;;;;0.90;0.60;;;21.10;71.50;;;;;;5150855;27;20507;-72
2021/05/31 10:29:12;;;;;;;0.90;0.60;;;21.50;68.70;;;;;;5134516;27;20442;-72
2021/05/31 10:31:47;;;;;;;0.70;0.50;;;21.50;68.40;;;;;;5141253;27;20498;-72
2021/05/31 10:34:20;;;;;;;0.75;0.50;;;22.00;67.40;;;;;;5148544;27;20510;-73
2021/05/31 10:36:50;;;;;;;0.70;0.50;;;22.60;65.90;;;;;;5139892;27;20444;-72
2021/05/31 10:39:48;;;;;;;0.60;0.40;;;22.60;64.90;;;;;;5153295;27;20511;-74
2021/05/31 10:42:16;;;;;;;1.10;0.60;;;22.90;62.50;;;;;;5132493;28;20736;-72
2021/05/31 10:44:42;;;;;;;0.90;0.55;;;23.10;60.70;;;;;;5132926;28;20414;-73
2021/05/31 10:47:12;;;;;;;0.70;0.60;;;22.50;61.30;;;;;;5133002;27;20442;-73
2021/05/31 10:49:38;;;;;;;1.03;0.53;;;22.80;61.50;;;;;;5134678;28;20513;-73
2021/05/31 10:52:05;;;;;;;0.80;0.60;;;23.00;60.60;;;;;;5133449;27;20438;-73
2021/05/31 10:54:35;;;;;;;0.80;0.50;;;23.10;59.90;;;;;;5133074;28;20493;-74
2021/05/31 10:57:06;;;;;;;1.00;0.50;;;23.30;61.10;;;;;;5134241;27;20487;-72
2021/05/31 10:59:46;;;;;;;0.80;0.60;;;23.60;59.70;;;;;;5133763;28;20772;-73
2021/05/31 11:02:22;;;;;;;0.90;0.50;;;24.10;59.40;;;;;;5142626;27;20847;-73
2021/05/31 11:04:49;;;;;;;0.70;0.50;;;24.20;58.20;;;;;;5154330;27;20441;-74
2021/05/31 11:07:26;;;;;;;0.70;0.50;;;24.50;57.50;;;;;;5150628;27;20481;-73
2021/05/31 11:09:54;;;;;;;0.75;0.52;;;24.90;56.50;;;;;;5138824;27;20462;-73
2021/05/31 11:12:28;;;;;;;3.20;0.60;;;24.90;56.50;;;;;;5144505;27;20431;-73
2021/05/31 11:15:07;;;;;;;1.40;0.60;;;24.90;56.80;;;;;;5137806;27;20469;-73
2021/05/31 11:17:33;;;;;;;0.90;0.60;;;25.00;56.20;;;;;;5134698;28;20718;-72
2021/05/31 11:20:11;;;;;;;0.70;0.50;;;24.90;55.60;;;;;;5152650;27;20425;-73
2021/05/31 11:22:38;;;;;;;0.90;0.60;;;25.20;56.30;;;;;;5139459;27;20429;-78
2021/05/31 11:25:06;;;;;;;0.70;0.50;;;23.90;54.70;;;;;;5140650;27;20526;-82
2021/05/31 11:27:35;;;;;;;1.10;0.60;;;24.00;55.80;;;;;;5138941;27;20476;-80
2021/05/31 11:30:06;;;;;;;0.80;0.60;;;23.60;56.60;;;;;;5146078;27;21075;-80
2021/05/31 11:32:33;;;;;;;0.75;0.50;;;24.20;56.50;;;;;;5136300;27;20540;-81
2021/05/31 11:35:01;;;;;;;0.77;0.50;;;24.60;55.60;;;;;;5148712;27;20887;-76
2021/05/31 11:37:33;;;;;;;1.10;0.70;;;24.50;54.60;;;;;;5141487;27;20473;-78
2021/05/31 11:40:00;;;;;;;0.70;0.50;;;24.40;53.50;;;;;;5141492;27;20414;-79
2021/05/31 11:42:27;;;;;;;0.80;0.57;;;23.70;52.70;;;;;;5136167;27;20813;-79
2021/05/31 11:44:55;;;;;;;0.80;0.60;;;23.90;53.30;;;;;;5136540;27;20410;-80
2021/05/31 11:47:24;;;;;;;0.70;0.50;;;24.00;53.90;;;;;;5137823;27;20476;-80
2021/05/31 11:49:50;;;;;;;1.02;0.60;;;24.30;53.70;;;;;;5137188;27;20446;-77
2021/05/31 11:52:17;;;;;;;0.70;0.50;;;24.80;52.40;;;;;;5135843;27;20460;-77
2021/05/31 11:54:44;;;;;;;1.20;0.50;;;23.70;51.80;;;;;;5136641;27;20439;-77
2021/05/31 11:57:13;;;;;;;0.60;0.50;;;24.30;51.50;;;;;;5136487;27;20430;-75
2021/05/31 11:59:41;;;;;;;1.20;0.50;;;24.40;51.00;;;;;;5137686;27;20509;-75
2021/05/31 12:02:09;;;;;;;0.80;0.50;;;24.20;51.70;;;;;;5136337;27;20888;-74
2021/05/31 12:04:37;;;;;;;0.70;0.50;;;25.00;52.40;;;;;;5141381;27;20428;-75
2021/05/31 12:07:06;;;;;;;0.80;0.50;;;25.30;50.90;;;;;;5157025;27;20481;-75
2021/05/31 12:09:32;;;;;;;1.10;0.60;;;25.60;52.00;;;;;;5152328;27;20514;-75
2021/05/31 12:12:00;;;;;;;0.70;0.50;;;25.80;50.00;;;;;;5157466;27;20475;-74
2021/05/31 12:14:27;;;;;;;0.70;0.57;;;25.60;51.00;;;;;;5154912;27;20512;-75
2021/05/31 12:16:58;;;;;;;1.00;0.50;;;25.80;50.80;;;;;;5144887;27;20498;-75
2021/05/31 12:19:27;;;;;;;0.68;0.50;;;25.30;50.70;;;;;;5146118;27;20424;-74
2021/05/31 12:21:57;;;;;;;1.10;0.50;;;25.60;51.60;;;;;;5155495;27;20769;-74
2021/05/31 12:24:28;;;;;;;0.80;0.50;;;25.80;50.00;;;;;;5154353;27;20903;-74
2021/05/31 12:26:58;;;;;;;0.70;0.50;;;25.80;48.80;;;;;;5154373;27;20443;-75
2021/05/31 12:32:45;;;;;;;1.10;0.70;;;25.90;48.60;;;;;;5129044;27;20408;-78
2021/05/31 12:35:12;;;;;;;0.65;0.50;;;26.30;49.00;;;;;;5152852;27;20417;-78
2021/05/31 12:37:46;;;;;;;0.70;0.50;;;25.90;47.70;;;;;;5146598;27;20587;-79
2021/05/31 12:40:14;;;;;;;0.70;0.50;;;26.10;47.10;;;;;;5139673;27;20475;-77
2021/05/31 12:42:41;;;;;;;0.63;0.40;;;25.80;46.60;;;;;;5137651;27;20841;-78
2021/05/31 12:45:10;;;;;;;0.50;0.40;;;25.80;45.80;;;;;;5137905;27;20740;-78
2021/05/31 12:47:39;;;;;;;1.50;0.40;;;26.00;44.80;;;;;;5137462;27;20739;-77
2021/05/31 12:50:09;;;;;;;0.60;0.40;;;26.30;44.00;;;;;;5137100;27;20417;-78
2021/05/31 12:52:38;;;;;;;0.60;0.40;;;26.60;41.40;;;;;;5132763;27;20810;-76
2021/05/31 12:55:10;;;;;;;0.73;0.40;;;26.80;41.70;;;;;;5135813;27;20571;-77
2021/05/31 12:57:38;;;;;;;0.80;0.50;;;26.40;42.40;;;;;;5141630;27;20419;-77
2021/05/31 13:00:11;;;;;;;0.98;0.50;;;26.00;43.10;;;;;;5137107;27;20715;-77
2021/05/31 13:02:42;;;;;;;0.60;0.40;;;25.90;44.20;;;;;;5136558;27;20513;-77
2021/05/31 13:05:11;;;;;;;0.80;0.50;;;26.40;44.80;;;;;;5136778;27;20445;-79
2021/05/31 13:07:44;;;;;;;0.70;0.50;;;26.10;43.80;;;;;;5136090;27;20546;-77